sensor_id;sensor_type;location;lat;lon;timestamp;P1;durP1;ratioP1;P2;durP2;ratioP2
49548;SDS011;35450;44.518;7.466;2023-05-02T00:00:48;3.10;;;2.80;;
49548;SDS011;35450;44.518;7.466;2023-05-02T00:03:52;15.65;;;9.93;;
49548;SDS011;35450;44.518;7.466;2023-05-02T00:06:56;9.63;;;5.05;;
49548;SDS011;35450;44.518;7.466;2023-05-02T00:10:00;16.17;;;9.38;;
49548;SDS011;35450;44.518;7.466;2023-05-02T00:13:05;6.53;;;4.78;;
49548;SDS011;35450;44.518;7.466;2023-05-02T00:16:09;3.78;;;3.28;;
49548;SDS011;35450;44.518;7.466;2023-05-02T00:19:13;3.25;;;2.20;;
49548;SDS011;35450;44.518;7.466;2023-05-02T00:22:18;3.13;;;2.50;;
49548;SDS011;35450;44.518;7.466;2023-05-02T00:25:22;16.17;;;10.25;;
49548;SDS011;35450;44.518;7.466;2023-05-02T00:28:26;15.15;;;9.77;;
49548;SDS011;35450;44.518;7.466;2023-05-02T00:31:30;8.52;;;5.75;;
49548;SDS011;35450;44.518;7.466;2023-05-02T00:34:33;13.73;;;7.78;;
49548;SDS011;35450;44.518;7.466;2023-05-02T00:37:38;8.23;;;4.50;;
49548;SDS011;35450;44.518;7.466;2023-05-02T00:40:42;11.23;;;5.93;;
49548;SDS011;35450;44.518;7.466;2023-05-02T00:43:47;15.27;;;9.63;;
49548;SDS011;35450;44.518;7.466;2023-05-02T00:46:51;7.13;;;3.95;;
49548;SDS011;35450;44.518;7.466;2023-05-02T00:49:56;8.65;;;6.07;;
49548;SDS011;35450;44.518;7.466;2023-05-02T00:53:02;7.30;;;4.65;;
49548;SDS011;35450;44.518;7.466;2023-05-02T00:56:07;7.60;;;3.05;;
49548;SDS011;35450;44.518;7.466;2023-05-02T00:59:13;3.78;;;2.72;;
49548;SDS011;35450;44.518;7.466;2023-05-02T01:05:53;4.30;;;2.85;;
49548;SDS011;35450;44.518;7.466;2023-05-02T01:12:57;0.80;;;0.60;;
49548;SDS011;35450;44.518;7.466;2023-05-02T01:16:09;3.95;;;2.75;;
49548;SDS011;35450;44.518;7.466;2023-05-02T01:19:22;4.55;;;1.98;;
49548;SDS011;35450;44.518;7.466;2023-05-02T01:22:31;13.00;;;8.27;;
49548;SDS011;35450;44.518;7.466;2023-05-02T01:25:46;3.45;;;2.85;;
49548;SDS011;35450;44.518;7.466;2023-05-02T01:29:02;2.95;;;2.15;;
49548;SDS011;35450;44.518;7.466;2023-05-02T01:32:08;5.97;;;4.30;;
49548;SDS011;35450;44.518;7.466;2023-05-02T01:35:16;7.95;;;4.00;;
49548;SDS011;35450;44.518;7.466;2023-05-02T01:38:21;5.38;;;2.17;;
49548;SDS011;35450;44.518;7.466;2023-05-02T01:41:28;1.23;;;1.00;;
49548;SDS011;35450;44.518;7.466;2023-05-02T01:44:34;1.13;;;1.02;;
49548;SDS011;35450;44.518;7.466;2023-05-02T01:47:39;0.80;;;0.80;;
49548;SDS011;35450;44.518;7.466;2023-05-02T01:50:45;1.05;;;0.60;;
49548;SDS011;35450;44.518;7.466;2023-05-02T01:53:50;0.77;;;0.60;;
49548;SDS011;35450;44.518;7.466;2023-05-02T01:56:56;2.90;;;0.40;;
49548;SDS011;35450;44.518;7.466;2023-05-02T02:00:02;0.40;;;0.20;;
49548;SDS011;35450;44.518;7.466;2023-05-02T02:03:16;0.88;;;0.40;;
49548;SDS011;35450;44.518;7.466;2023-05-02T02:06:21;0.40;;;0.40;;
49548;SDS011;35450;44.518;7.466;2023-05-02T02:09:27;0.52;;;0.40;;
49548;SDS011;35450;44.518;7.466;2023-05-02T02:12:34;0.40;;;0.40;;
49548;SDS011;35450;44.518;7.466;2023-05-02T02:15:42;0.45;;;0.40;;
49548;SDS011;35450;44.518;7.466;2023-05-02T02:18:50;0.10;;;0.10;;
49548;SDS011;35450;44.518;7.466;2023-05-02T02:21:58;0.28;;;0.28;;
49548;SDS011;35450;44.518;7.466;2023-05-02T02:25:06;1.88;;;0.30;;
49548;SDS011;35450;44.518;7.466;2023-05-02T02:28:12;0.30;;;0.30;;
49548;SDS011;35450;44.518;7.466;2023-05-02T02:31:16;3.05;;;0.30;;
49548;SDS011;35450;44.518;7.466;2023-05-02T02:34:20;0.30;;;0.30;;
49548;SDS011;35450;44.518;7.466;2023-05-02T02:37:26;0.43;;;0.30;;
49548;SDS011;35450;44.518;7.466;2023-05-02T02:40:40;1.45;;;0.70;;
49548;SDS011;35450;44.518;7.466;2023-05-02T02:43:59;0.55;;;0.30;;
49548;SDS011;35450;44.518;7.466;2023-05-02T02:47:20;0.20;;;0.20;;
49548;SDS011;35450;44.518;7.466;2023-05-02T03:00:35;1.25;;;0.28;;
49548;SDS011;35450;44.518;7.466;2023-05-02T03:03:39;1.30;;;0.35;;
49548;SDS011;35450;44.518;7.466;2023-05-02T03:06:45;0.20;;;0.10;;
49548;SDS011;35450;44.518;7.466;2023-05-02T03:09:49;0.30;;;0.25;;
49548;SDS011;35450;44.518;7.466;2023-05-02T03:12:57;0.20;;;0.20;;
49548;SDS011;35450;44.518;7.466;2023-05-02T03:16:47;0.10;;;0.10;;
49548;SDS011;35450;44.518;7.466;2023-05-02T03:19:41;0.22;;;0.20;;
49548;SDS011;35450;44.518;7.466;2023-05-02T03:22:45;0.65;;;0.20;;
49548;SDS011;35450;44.518;7.466;2023-05-02T03:25:49;1.95;;;0.20;;
49548;SDS011;35450;44.518;7.466;2023-05-02T03:28:58;0.65;;;0.20;;
49548;SDS011;35450;44.518;7.466;2023-05-02T03:32:08;1.23;;;0.20;;
49548;SDS011;35450;44.518;7.466;2023-05-02T03:35:14;2.10;;;0.20;;
49548;SDS011;35450;44.518;7.466;2023-05-02T03:38:21;0.50;;;0.20;;
49548;SDS011;35450;44.518;7.466;2023-05-02T03:41:26;0.20;;;0.20;;
49548;SDS011;35450;44.518;7.466;2023-05-02T03:44:38;1.38;;;0.20;;
49548;SDS011;35450;44.518;7.466;2023-05-02T03:47:42;0.13;;;0.13;;
49548;SDS011;35450;44.518;7.466;2023-05-02T03:50:47;0.28;;;0.22;;
49548;SDS011;35450;44.518;7.466;2023-05-02T03:53:51;0.20;;;0.17;;
49548;SDS011;35450;44.518;7.466;2023-05-02T03:56:55;0.20;;;0.20;;
49548;SDS011;35450;44.518;7.466;2023-05-02T04:00:05;0.80;;;0.20;;
49548;SDS011;35450;44.518;7.466;2023-05-02T04:03:15;0.20;;;0.20;;
49548;SDS011;35450;44.518;7.466;2023-05-02T04:06:21;0.43;;;0.30;;
49548;SDS011;35450;44.518;7.466;2023-05-02T04:09:31;3.13;;;0.30;;
49548;SDS011;35450;44.518;7.466;2023-05-02T04:12:42;0.65;;;0.20;;
49548;SDS011;35450;44.518;7.466;2023-05-02T04:15:47;0.70;;;0.20;;
49548;SDS011;35450;44.518;7.466;2023-05-02T04:18:56;0.10;;;0.10;;
49548;SDS011;35450;44.518;7.466;2023-05-02T04:22:01;0.50;;;0.30;;
49548;SDS011;35450;44.518;7.466;2023-05-02T04:25:08;0.40;;;0.30;;
49548;SDS011;35450;44.518;7.466;2023-05-02T04:28:14;0.68;;;0.30;;
49548;SDS011;35450;44.518;7.466;2023-05-02T04:31:18;0.30;;;0.30;;
49548;SDS011;35450;44.518;7.466;2023-05-02T04:34:23;0.38;;;0.30;;
49548;SDS011;35450;44.518;7.466;2023-05-02T04:37:27;1.23;;;0.45;;
49548;SDS011;35450;44.518;7.466;2023-05-02T04:40:32;1.70;;;1.00;;
49548;SDS011;35450;44.518;7.466;2023-05-02T04:43:41;2.35;;;0.73;;
49548;SDS011;35450;44.518;7.466;2023-05-02T04:46:46;0.82;;;0.50;;
49548;SDS011;35450;44.518;7.466;2023-05-02T04:49:49;0.63;;;0.50;;
49548;SDS011;35450;44.518;7.466;2023-05-02T04:52:53;2.40;;;1.00;;
49548;SDS011;35450;44.518;7.466;2023-05-02T04:55:58;1.45;;;0.90;;
49548;SDS011;35450;44.518;7.466;2023-05-02T04:59:02;1.63;;;0.80;;
49548;SDS011;35450;44.518;7.466;2023-05-02T05:02:08;3.83;;;0.70;;
49548;SDS011;35450;44.518;7.466;2023-05-02T05:05:15;0.30;;;0.20;;
49548;SDS011;35450;44.518;7.466;2023-05-02T05:08:18;1.17;;;0.30;;
49548;SDS011;35450;44.518;7.466;2023-05-02T05:11:22;0.95;;;0.35;;
49548;SDS011;35450;44.518;7.466;2023-05-02T05:14:28;0.22;;;0.20;;
49548;SDS011;35450;44.518;7.466;2023-05-02T05:17:34;0.40;;;0.22;;
49548;SDS011;35450;44.518;7.466;2023-05-02T05:20:40;16.38;;;11.00;;
49548;SDS011;35450;44.518;7.466;2023-05-02T05:23:44;0.98;;;0.93;;
49548;SDS011;35450;44.518;7.466;2023-05-02T05:26:55;0.15;;;0.13;;
49548;SDS011;35450;44.518;7.466;2023-05-02T05:29:59;0.45;;;0.20;;
49548;SDS011;35450;44.518;7.466;2023-05-02T05:33:04;0.50;;;0.10;;
49548;SDS011;35450;44.518;7.466;2023-05-02T05:36:09;0.10;;;0.10;;
49548;SDS011;35450;44.518;7.466;2023-05-02T05:39:14;0.30;;;0.20;;
49548;SDS011;35450;44.518;7.466;2023-05-02T05:42:21;0.93;;;0.17;;
49548;SDS011;35450;44.518;7.466;2023-05-02T05:45:28;0.20;;;0.20;;
49548;SDS011;35450;44.518;7.466;2023-05-02T05:48:32;0.10;;;0.10;;
49548;SDS011;35450;44.518;7.466;2023-05-02T05:51:37;0.00;;;0.00;;
49548;SDS011;35450;44.518;7.466;2023-05-02T05:54:41;5.68;;;0.20;;
49548;SDS011;35450;44.518;7.466;2023-05-02T05:57:45;0.85;;;0.20;;
49548;SDS011;35450;44.518;7.466;2023-05-02T06:00:50;0.25;;;0.22;;
49548;SDS011;35450;44.518;7.466;2023-05-02T06:03:54;2.58;;;0.40;;
49548;SDS011;35450;44.518;7.466;2023-05-02T06:06:59;1.00;;;0.40;;
49548;SDS011;35450;44.518;7.466;2023-05-02T06:10:03;3.05;;;0.20;;
49548;SDS011;35450;44.518;7.466;2023-05-02T06:13:09;0.32;;;0.25;;
49548;SDS011;35450;44.518;7.466;2023-05-02T06:16:16;0.70;;;0.40;;
49548;SDS011;35450;44.518;7.466;2023-05-02T06:19:21;0.50;;;0.20;;
49548;SDS011;35450;44.518;7.466;2023-05-02T06:22:25;0.65;;;0.30;;
49548;SDS011;35450;44.518;7.466;2023-05-02T06:25:29;0.40;;;0.40;;
49548;SDS011;35450;44.518;7.466;2023-05-02T06:28:35;0.57;;;0.30;;
49548;SDS011;35450;44.518;7.466;2023-05-02T06:31:39;1.00;;;0.40;;
49548;SDS011;35450;44.518;7.466;2023-05-02T06:34:43;2.40;;;0.40;;
49548;SDS011;35450;44.518;7.466;2023-05-02T06:37:47;2.95;;;0.50;;
49548;SDS011;35450;44.518;7.466;2023-05-02T06:40:51;3.92;;;0.50;;
49548;SDS011;35450;44.518;7.466;2023-05-02T06:43:55;0.17;;;0.17;;
49548;SDS011;35450;44.518;7.466;2023-05-02T06:46:59;1.67;;;0.60;;
49548;SDS011;35450;44.518;7.466;2023-05-02T06:50:03;0.45;;;0.32;;
49548;SDS011;35450;44.518;7.466;2023-05-02T06:53:09;0.47;;;0.30;;
49548;SDS011;35450;44.518;7.466;2023-05-02T06:56:13;1.25;;;0.75;;
49548;SDS011;35450;44.518;7.466;2023-05-02T06:59:17;0.88;;;0.80;;
49548;SDS011;35450;44.518;7.466;2023-05-02T07:02:20;1.25;;;0.20;;
49548;SDS011;35450;44.518;7.466;2023-05-02T07:05:25;3.05;;;0.50;;
49548;SDS011;35450;44.518;7.466;2023-05-02T07:08:29;0.32;;;0.32;;
49548;SDS011;35450;44.518;7.466;2023-05-02T07:11:33;2.60;;;0.20;;
49548;SDS011;35450;44.518;7.466;2023-05-02T07:14:37;0.30;;;0.30;;
49548;SDS011;35450;44.518;7.466;2023-05-02T07:17:41;0.40;;;0.40;;
49548;SDS011;35450;44.518;7.466;2023-05-02T07:20:46;1.08;;;0.30;;
49548;SDS011;35450;44.518;7.466;2023-05-02T07:23:51;1.45;;;0.93;;
49548;SDS011;35450;44.518;7.466;2023-05-02T07:26:55;2.80;;;0.85;;
49548;SDS011;35450;44.518;7.466;2023-05-02T07:29:59;1.67;;;0.80;;
49548;SDS011;35450;44.518;7.466;2023-05-02T07:33:03;1.52;;;0.75;;
49548;SDS011;35450;44.518;7.466;2023-05-02T07:36:08;2.30;;;0.90;;
49548;SDS011;35450;44.518;7.466;2023-05-02T07:39:12;1.20;;;0.65;;
49548;SDS011;35450;44.518;7.466;2023-05-02T07:42:16;0.60;;;0.50;;
49548;SDS011;35450;44.518;7.466;2023-05-02T07:45:24;0.93;;;0.63;;
49548;SDS011;35450;44.518;7.466;2023-05-02T07:48:51;1.27;;;0.47;;
49548;SDS011;35450;44.518;7.466;2023-05-02T07:52:14;1.08;;;0.45;;
49548;SDS011;35450;44.518;7.466;2023-05-02T07:55:18;0.57;;;0.30;;
49548;SDS011;35450;44.518;7.466;2023-05-02T07:58:22;1.02;;;0.55;;
49548;SDS011;35450;44.518;7.466;2023-05-02T08:01:26;2.17;;;0.40;;
49548;SDS011;35450;44.518;7.466;2023-05-02T08:04:31;3.03;;;0.45;;
49548;SDS011;35450;44.518;7.466;2023-05-02T08:07:35;0.60;;;0.30;;
49548;SDS011;35450;44.518;7.466;2023-05-02T08:10:40;1.33;;;0.32;;
49548;SDS011;35450;44.518;7.466;2023-05-02T08:13:44;0.65;;;0.30;;
49548;SDS011;35450;44.518;7.466;2023-05-02T08:16:48;0.52;;;0.30;;
49548;SDS011;35450;44.518;7.466;2023-05-02T08:19:52;3.22;;;0.40;;
49548;SDS011;35450;44.518;7.466;2023-05-02T08:22:56;0.30;;;0.20;;
49548;SDS011;35450;44.518;7.466;2023-05-02T08:26:00;1.95;;;0.82;;
49548;SDS011;35450;44.518;7.466;2023-05-02T08:29:04;0.40;;;0.32;;
49548;SDS011;35450;44.518;7.466;2023-05-02T08:32:08;0.20;;;0.20;;
49548;SDS011;35450;44.518;7.466;2023-05-02T08:35:12;0.22;;;0.10;;
49548;SDS011;35450;44.518;7.466;2023-05-02T08:38:16;0.43;;;0.20;;
49548;SDS011;35450;44.518;7.466;2023-05-02T08:41:21;2.58;;;0.20;;
49548;SDS011;35450;44.518;7.466;2023-05-02T08:44:25;0.38;;;0.30;;
49548;SDS011;35450;44.518;7.466;2023-05-02T08:47:30;0.10;;;0.10;;
49548;SDS011;35450;44.518;7.466;2023-05-02T08:50:38;0.80;;;0.20;;
49548;SDS011;35450;44.518;7.466;2023-05-02T08:53:44;0.30;;;0.15;;
49548;SDS011;35450;44.518;7.466;2023-05-02T08:56:49;1.23;;;0.40;;
49548;SDS011;35450;44.518;7.466;2023-05-02T08:59:55;0.38;;;0.20;;
49548;SDS011;35450;44.518;7.466;2023-05-02T09:03:11;2.60;;;0.20;;
49548;SDS011;35450;44.518;7.466;2023-05-02T09:06:35;0.55;;;0.15;;
49548;SDS011;35450;44.518;7.466;2023-05-02T09:09:39;0.20;;;0.20;;
49548;SDS011;35450;44.518;7.466;2023-05-02T09:12:43;0.20;;;0.15;;
49548;SDS011;35450;44.518;7.466;2023-05-02T09:15:55;0.77;;;0.40;;
49548;SDS011;35450;44.518;7.466;2023-05-02T09:19:04;0.90;;;0.15;;
49548;SDS011;35450;44.518;7.466;2023-05-02T09:22:08;0.28;;;0.20;;
49548;SDS011;35450;44.518;7.466;2023-05-02T09:25:13;1.10;;;0.30;;
49548;SDS011;35450;44.518;7.466;2023-05-02T09:28:18;0.45;;;0.30;;
49548;SDS011;35450;44.518;7.466;2023-05-02T09:31:29;0.10;;;0.10;;
49548;SDS011;35450;44.518;7.466;2023-05-02T09:34:39;1.20;;;0.30;;
49548;SDS011;35450;44.518;7.466;2023-05-02T09:37:43;0.20;;;0.20;;
49548;SDS011;35450;44.518;7.466;2023-05-02T09:40:53;0.43;;;0.20;;
49548;SDS011;35450;44.518;7.466;2023-05-02T09:44:01;0.28;;;0.20;;
49548;SDS011;35450;44.518;7.466;2023-05-02T09:47:05;1.45;;;0.45;;
49548;SDS011;35450;44.518;7.466;2023-05-02T09:50:11;0.30;;;0.20;;
49548;SDS011;35450;44.518;7.466;2023-05-02T09:53:33;0.25;;;0.20;;
49548;SDS011;35450;44.518;7.466;2023-05-02T09:56:53;2.28;;;0.30;;
49548;SDS011;35450;44.518;7.466;2023-05-02T09:59:59;0.98;;;0.20;;
49548;SDS011;35450;44.518;7.466;2023-05-02T10:03:04;1.40;;;0.20;;
49548;SDS011;35450;44.518;7.466;2023-05-02T10:06:10;0.38;;;0.35;;
49548;SDS011;35450;44.518;7.466;2023-05-02T10:09:15;0.77;;;0.20;;
49548;SDS011;35450;44.518;7.466;2023-05-02T10:12:21;1.27;;;0.70;;
49548;SDS011;35450;44.518;7.466;2023-05-02T10:15:30;2.88;;;0.60;;
49548;SDS011;35450;44.518;7.466;2023-05-02T10:18:57;1.00;;;0.57;;
49548;SDS011;35450;44.518;7.466;2023-05-02T10:22:05;3.45;;;0.65;;
49548;SDS011;35450;44.518;7.466;2023-05-02T10:25:10;1.73;;;0.20;;
49548;SDS011;35450;44.518;7.466;2023-05-02T10:28:16;0.17;;;0.17;;
49548;SDS011;35450;44.518;7.466;2023-05-02T10:31:20;0.45;;;0.40;;
49548;SDS011;35450;44.518;7.466;2023-05-02T10:34:24;0.85;;;0.20;;
49548;SDS011;35450;44.518;7.466;2023-05-02T10:37:30;0.15;;;0.10;;
49548;SDS011;35450;44.518;7.466;2023-05-02T10:40:37;0.20;;;0.17;;
49548;SDS011;35450;44.518;7.466;2023-05-02T10:43:46;1.85;;;0.20;;
49548;SDS011;35450;44.518;7.466;2023-05-02T10:46:51;0.20;;;0.10;;
49548;SDS011;35450;44.518;7.466;2023-05-02T10:50:00;0.20;;;0.20;;
49548;SDS011;35450;44.518;7.466;2023-05-02T10:56:28;0.35;;;0.10;;
49548;SDS011;35450;44.518;7.466;2023-05-02T10:59:36;0.38;;;0.10;;
49548;SDS011;35450;44.518;7.466;2023-05-02T11:02:46;0.10;;;0.10;;
49548;SDS011;35450;44.518;7.466;2023-05-02T11:06:04;0.10;;;0.10;;
49548;SDS011;35450;44.518;7.466;2023-05-02T11:16:00;1.77;;;0.20;;
49548;SDS011;35450;44.518;7.466;2023-05-02T11:19:05;0.10;;;0.10;;
49548;SDS011;35450;44.518;7.466;2023-05-02T11:25:33;0.10;;;0.10;;
49548;SDS011;35450;44.518;7.466;2023-05-02T11:28:39;0.13;;;0.10;;
49548;SDS011;35450;44.518;7.466;2023-05-02T11:31:52;0.20;;;0.20;;
49548;SDS011;35450;44.518;7.466;2023-05-02T11:34:57;0.60;;;0.30;;
49548;SDS011;35450;44.518;7.466;2023-05-02T11:38:02;0.17;;;0.10;;
49548;SDS011;35450;44.518;7.466;2023-05-02T11:41:10;0.20;;;0.20;;
49548;SDS011;35450;44.518;7.466;2023-05-02T11:44:14;0.10;;;0.10;;
49548;SDS011;35450;44.518;7.466;2023-05-02T11:47:18;2.78;;;0.82;;
49548;SDS011;35450;44.518;7.466;2023-05-02T11:50:23;0.20;;;0.10;;
49548;SDS011;35450;44.518;7.466;2023-05-02T11:53:28;0.25;;;0.10;;
49548;SDS011;35450;44.518;7.466;2023-05-02T11:56:32;0.95;;;0.20;;
49548;SDS011;35450;44.518;7.466;2023-05-02T11:59:49;0.10;;;0.10;;
49548;SDS011;35450;44.518;7.466;2023-05-02T12:02:56;0.38;;;0.10;;
49548;SDS011;35450;44.518;7.466;2023-05-02T12:06:08;1.48;;;0.55;;
49548;SDS011;35450;44.518;7.466;2023-05-02T12:09:13;0.57;;;0.57;;
49548;SDS011;35450;44.518;7.466;2023-05-02T12:12:21;1.20;;;0.13;;
49548;SDS011;35450;44.518;7.466;2023-05-02T12:15:26;0.30;;;0.10;;
49548;SDS011;35450;44.518;7.466;2023-05-02T12:18:30;0.28;;;0.20;;
49548;SDS011;35450;44.518;7.466;2023-05-02T12:21:34;0.20;;;0.17;;
49548;SDS011;35450;44.518;7.466;2023-05-02T12:24:39;0.30;;;0.20;;
49548;SDS011;35450;44.518;7.466;2023-05-02T12:27:57;0.40;;;0.22;;
49548;SDS011;35450;44.518;7.466;2023-05-02T12:31:09;0.25;;;0.17;;
49548;SDS011;35450;44.518;7.466;2023-05-02T12:34:17;0.10;;;0.10;;
49548;SDS011;35450;44.518;7.466;2023-05-02T12:37:37;1.88;;;0.20;;
49548;SDS011;35450;44.518;7.466;2023-05-02T12:40:45;0.45;;;0.20;;
49548;SDS011;35450;44.518;7.466;2023-05-02T12:43:54;0.20;;;0.15;;
49548;SDS011;35450;44.518;7.466;2023-05-02T12:46:58;1.45;;;0.10;;
49548;SDS011;35450;44.518;7.466;2023-05-02T12:50:03;0.20;;;0.20;;
49548;SDS011;35450;44.518;7.466;2023-05-02T12:53:07;0.55;;;0.20;;
49548;SDS011;35450;44.518;7.466;2023-05-02T12:56:12;3.40;;;0.20;;
49548;SDS011;35450;44.518;7.466;2023-05-02T12:59:27;3.58;;;0.30;;
49548;SDS011;35450;44.518;7.466;2023-05-02T13:02:32;3.50;;;0.30;;
49548;SDS011;35450;44.518;7.466;2023-05-02T13:05:36;0.20;;;0.10;;
49548;SDS011;35450;44.518;7.466;2023-05-02T13:08:40;5.75;;;0.32;;
49548;SDS011;35450;44.518;7.466;2023-05-02T13:11:44;0.73;;;0.30;;
49548;SDS011;35450;44.518;7.466;2023-05-02T13:14:49;0.57;;;0.20;;
49548;SDS011;35450;44.518;7.466;2023-05-02T13:17:53;0.32;;;0.22;;
49548;SDS011;35450;44.518;7.466;2023-05-02T13:20:58;1.45;;;0.30;;
49548;SDS011;35450;44.518;7.466;2023-05-02T13:24:02;0.50;;;0.30;;
49548;SDS011;35450;44.518;7.466;2023-05-02T13:27:06;3.20;;;0.28;;
49548;SDS011;35450;44.518;7.466;2023-05-02T13:30:11;0.40;;;0.20;;
49548;SDS011;35450;44.518;7.466;2023-05-02T13:33:15;0.65;;;0.30;;
49548;SDS011;35450;44.518;7.466;2023-05-02T13:36:19;3.03;;;0.20;;
49548;SDS011;35450;44.518;7.466;2023-05-02T13:39:23;0.20;;;0.17;;
49548;SDS011;35450;44.518;7.466;2023-05-02T13:42:27;2.28;;;0.20;;
49548;SDS011;35450;44.518;7.466;2023-05-02T13:45:31;0.82;;;0.20;;
49548;SDS011;35450;44.518;7.466;2023-05-02T13:48:35;0.90;;;0.20;;
49548;SDS011;35450;44.518;7.466;2023-05-02T13:51:40;2.42;;;0.20;;
49548;SDS011;35450;44.518;7.466;2023-05-02T13:54:45;3.38;;;0.20;;
49548;SDS011;35450;44.518;7.466;2023-05-02T13:57:49;0.47;;;0.30;;
49548;SDS011;35450;44.518;7.466;2023-05-02T14:00:53;0.20;;;0.10;;
49548;SDS011;35450;44.518;7.466;2023-05-02T14:03:58;0.50;;;0.30;;
49548;SDS011;35450;44.518;7.466;2023-05-02T14:07:02;0.73;;;0.20;;
49548;SDS011;35450;44.518;7.466;2023-05-02T14:10:06;0.57;;;0.20;;
49548;SDS011;35450;44.518;7.466;2023-05-02T14:13:10;0.20;;;0.20;;
49548;SDS011;35450;44.518;7.466;2023-05-02T14:16:15;0.35;;;0.30;;
49548;SDS011;35450;44.518;7.466;2023-05-02T14:19:19;0.30;;;0.20;;
49548;SDS011;35450;44.518;7.466;2023-05-02T14:22:23;0.68;;;0.20;;
49548;SDS011;35450;44.518;7.466;2023-05-02T14:25:27;2.15;;;0.73;;
49548;SDS011;35450;44.518;7.466;2023-05-02T14:28:31;0.20;;;0.20;;
49548;SDS011;35450;44.518;7.466;2023-05-02T14:31:35;0.15;;;0.10;;
49548;SDS011;35450;44.518;7.466;2023-05-02T14:34:39;1.08;;;0.35;;
49548;SDS011;35450;44.518;7.466;2023-05-02T14:37:43;2.63;;;0.13;;
49548;SDS011;35450;44.518;7.466;2023-05-02T14:40:49;0.40;;;0.20;;
49548;SDS011;35450;44.518;7.466;2023-05-02T14:43:53;0.20;;;0.10;;
49548;SDS011;35450;44.518;7.466;2023-05-02T14:46:57;0.20;;;0.13;;
49548;SDS011;35450;44.518;7.466;2023-05-02T14:50:02;1.75;;;0.22;;
49548;SDS011;35450;44.518;7.466;2023-05-02T14:53:07;0.40;;;0.30;;
49548;SDS011;35450;44.518;7.466;2023-05-02T14:56:11;0.40;;;0.30;;
49548;SDS011;35450;44.518;7.466;2023-05-02T14:59:16;0.25;;;0.25;;
49548;SDS011;35450;44.518;7.466;2023-05-02T15:02:21;0.40;;;0.22;;
49548;SDS011;35450;44.518;7.466;2023-05-02T15:05:25;0.40;;;0.40;;
49548;SDS011;35450;44.518;7.466;2023-05-02T15:08:29;0.43;;;0.30;;
49548;SDS011;35450;44.518;7.466;2023-05-02T15:11:33;0.30;;;0.30;;
49548;SDS011;35450;44.518;7.466;2023-05-02T15:14:38;3.17;;;0.20;;
49548;SDS011;35450;44.518;7.466;2023-05-02T15:17:42;0.20;;;0.10;;
49548;SDS011;35450;44.518;7.466;2023-05-02T15:20:46;0.52;;;0.20;;
49548;SDS011;35450;44.518;7.466;2023-05-02T15:23:51;0.28;;;0.28;;
49548;SDS011;35450;44.518;7.466;2023-05-02T15:26:55;0.47;;;0.20;;
49548;SDS011;35450;44.518;7.466;2023-05-02T15:29:59;0.20;;;0.20;;
49548;SDS011;35450;44.518;7.466;2023-05-02T15:33:04;0.55;;;0.22;;
49548;SDS011;35450;44.518;7.466;2023-05-02T15:36:09;0.47;;;0.20;;
49548;SDS011;35450;44.518;7.466;2023-05-02T15:39:13;0.82;;;0.30;;
49548;SDS011;35450;44.518;7.466;2023-05-02T15:42:17;0.50;;;0.13;;
49548;SDS011;35450;44.518;7.466;2023-05-02T15:45:21;1.30;;;0.32;;
49548;SDS011;35450;44.518;7.466;2023-05-02T15:48:26;0.95;;;0.20;;
49548;SDS011;35450;44.518;7.466;2023-05-02T15:51:32;0.40;;;0.30;;
49548;SDS011;35450;44.518;7.466;2023-05-02T15:54:36;0.32;;;0.20;;
49548;SDS011;35450;44.518;7.466;2023-05-02T15:57:41;2.70;;;0.10;;
49548;SDS011;35450;44.518;7.466;2023-05-02T16:00:46;0.80;;;0.15;;
49548;SDS011;35450;44.518;7.466;2023-05-02T16:03:51;0.22;;;0.20;;
49548;SDS011;35450;44.518;7.466;2023-05-02T16:06:55;0.22;;;0.22;;
49548;SDS011;35450;44.518;7.466;2023-05-02T16:09:59;0.45;;;0.20;;
49548;SDS011;35450;44.518;7.466;2023-05-02T16:13:03;0.25;;;0.10;;
49548;SDS011;35450;44.518;7.466;2023-05-02T16:16:07;0.20;;;0.13;;
49548;SDS011;35450;44.518;7.466;2023-05-02T16:19:11;2.92;;;0.38;;
49548;SDS011;35450;44.518;7.466;2023-05-02T16:22:15;0.80;;;0.30;;
49548;SDS011;35450;44.518;7.466;2023-05-02T16:25:20;0.98;;;0.30;;
49548;SDS011;35450;44.518;7.466;2023-05-02T16:28:24;1.02;;;0.30;;
49548;SDS011;35450;44.518;7.466;2023-05-02T16:31:28;1.58;;;0.20;;
49548;SDS011;35450;44.518;7.466;2023-05-02T16:34:33;0.38;;;0.38;;
49548;SDS011;35450;44.518;7.466;2023-05-02T16:37:37;0.40;;;0.30;;
49548;SDS011;35450;44.518;7.466;2023-05-02T16:40:44;0.93;;;0.40;;
49548;SDS011;35450;44.518;7.466;2023-05-02T16:43:48;0.68;;;0.20;;
49548;SDS011;35450;44.518;7.466;2023-05-02T16:46:52;0.47;;;0.43;;
49548;SDS011;35450;44.518;7.466;2023-05-02T16:49:57;1.38;;;0.30;;
49548;SDS011;35450;44.518;7.466;2023-05-02T16:53:01;0.60;;;0.30;;
49548;SDS011;35450;44.518;7.466;2023-05-02T16:56:05;0.40;;;0.40;;
49548;SDS011;35450;44.518;7.466;2023-05-02T16:59:10;3.30;;;0.30;;
49548;SDS011;35450;44.518;7.466;2023-05-02T17:02:15;2.38;;;0.32;;
49548;SDS011;35450;44.518;7.466;2023-05-02T17:05:20;3.50;;;0.40;;
49548;SDS011;35450;44.518;7.466;2023-05-02T17:08:24;2.80;;;0.40;;
49548;SDS011;35450;44.518;7.466;2023-05-02T17:11:29;3.10;;;0.43;;
49548;SDS011;35450;44.518;7.466;2023-05-02T17:14:33;1.15;;;0.40;;
49548;SDS011;35450;44.518;7.466;2023-05-02T17:17:37;0.65;;;0.50;;
49548;SDS011;35450;44.518;7.466;2023-05-02T17:20:41;2.30;;;0.60;;
49548;SDS011;35450;44.518;7.466;2023-05-02T17:23:45;3.53;;;0.30;;
49548;SDS011;35450;44.518;7.466;2023-05-02T17:26:50;2.05;;;0.40;;
49548;SDS011;35450;44.518;7.466;2023-05-02T17:29:54;2.60;;;0.43;;
49548;SDS011;35450;44.518;7.466;2023-05-02T17:32:58;1.02;;;0.40;;
49548;SDS011;35450;44.518;7.466;2023-05-02T17:36:03;4.03;;;0.60;;
49548;SDS011;35450;44.518;7.466;2023-05-02T17:39:07;4.35;;;0.40;;
49548;SDS011;35450;44.518;7.466;2023-05-02T17:42:12;1.45;;;0.30;;
49548;SDS011;35450;44.518;7.466;2023-05-02T17:45:16;1.67;;;1.10;;
49548;SDS011;35450;44.518;7.466;2023-05-02T17:48:20;5.63;;;2.97;;
49548;SDS011;35450;44.518;7.466;2023-05-02T17:51:24;2.03;;;1.83;;
49548;SDS011;35450;44.518;7.466;2023-05-02T17:54:28;1.75;;;1.35;;
49548;SDS011;35450;44.518;7.466;2023-05-02T17:57:32;3.70;;;0.90;;
49548;SDS011;35450;44.518;7.466;2023-05-02T18:00:36;3.17;;;0.70;;
49548;SDS011;35450;44.518;7.466;2023-05-02T18:03:40;3.70;;;0.32;;
49548;SDS011;35450;44.518;7.466;2023-05-02T18:06:44;5.03;;;0.40;;
49548;SDS011;35450;44.518;7.466;2023-05-02T18:09:51;1.67;;;0.40;;
49548;SDS011;35450;44.518;7.466;2023-05-02T18:12:55;5.70;;;0.50;;
49548;SDS011;35450;44.518;7.466;2023-05-02T18:15:59;1.42;;;0.50;;
49548;SDS011;35450;44.518;7.466;2023-05-02T18:19:07;2.15;;;0.80;;
49548;SDS011;35450;44.518;7.466;2023-05-02T18:22:11;0.60;;;0.47;;
49548;SDS011;35450;44.518;7.466;2023-05-02T18:25:16;3.75;;;0.55;;
49548;SDS011;35450;44.518;7.466;2023-05-02T18:28:21;0.75;;;0.30;;
49548;SDS011;35450;44.518;7.466;2023-05-02T18:31:25;1.00;;;0.50;;
49548;SDS011;35450;44.518;7.466;2023-05-02T18:34:32;1.75;;;0.55;;
49548;SDS011;35450;44.518;7.466;2023-05-02T18:37:36;1.27;;;0.80;;
49548;SDS011;35450;44.518;7.466;2023-05-02T18:40:41;13.00;;;1.58;;
49548;SDS011;35450;44.518;7.466;2023-05-02T18:43:45;4.22;;;1.00;;
49548;SDS011;35450;44.518;7.466;2023-05-02T18:46:49;1.35;;;0.95;;
49548;SDS011;35450;44.518;7.466;2023-05-02T18:49:52;3.55;;;0.80;;
49548;SDS011;35450;44.518;7.466;2023-05-02T18:52:57;2.92;;;0.57;;
49548;SDS011;35450;44.518;7.466;2023-05-02T18:56:01;3.08;;;0.40;;
49548;SDS011;35450;44.518;7.466;2023-05-02T18:59:05;2.78;;;1.10;;
49548;SDS011;35450;44.518;7.466;2023-05-02T19:02:10;2.83;;;1.20;;
49548;SDS011;35450;44.518;7.466;2023-05-02T19:05:13;4.70;;;1.63;;
49548;SDS011;35450;44.518;7.466;2023-05-02T19:08:18;2.38;;;1.48;;
49548;SDS011;35450;44.518;7.466;2023-05-02T19:11:22;1.73;;;1.20;;